Powder River, Wyoming
Current Conditions -  °F | °C
As of 3:53 AM on Saturday 25 Oct 2014 (Local Time) from KCPR Reporting Station
Clear Clear  
Wind Chill: 39°   Ceiling: Unl
Heat Index: 43°   Visibility: 10mi
Dew Point: 27°   Wind: 7mph
Humidity: 53%   Direction: 310°NW
Pressure: 30.17"   Gusts: NA
Location:  43.03°N, 106.99°W
Report Text: KCPR 250953Z AUTO 31006KT 10SM CLR 06/M03 A3017 RMK AO2 SLP173 T00611028
Loading
Personal Weather Stations






























Interactive Weather Map
Tropical Storm Tracking
New forecast layout! Learn more

10-Day Weather Forecast

Advertisements
Track Severe Weather on mobile